sensor_id;sensor_type;location;lat;lon;timestamp;temperature;humidity
7658;DHT22;8462;53.156;8.220;2023-05-20T00:01:45;14.50;87.40
7658;DHT22;8462;53.156;8.220;2023-05-20T00:04:12;14.60;87.50
7658;DHT22;8462;53.156;8.220;2023-05-20T00:06:39;14.60;87.40
7658;DHT22;8462;53.156;8.220;2023-05-20T00:09:06;14.60;87.30
7658;DHT22;8462;53.156;8.220;2023-05-20T00:11:33;14.60;87.30
7658;DHT22;8462;53.156;8.220;2023-05-20T00:14:01;14.50;88.30
7658;DHT22;8462;53.156;8.220;2023-05-20T00:16:28;14.50;87.40
7658;DHT22;8462;53.156;8.220;2023-05-20T00:18:55;14.50;87.50
7658;DHT22;8462;53.156;8.220;2023-05-20T00:21:22;14.50;87.50
7658;DHT22;8462;53.156;8.220;2023-05-20T00:23:49;14.50;87.40
7658;DHT22;8462;53.156;8.220;2023-05-20T00:26:16;14.50;87.60
7658;DHT22;8462;53.156;8.220;2023-05-20T00:28:48;14.50;87.50
7658;DHT22;8462;53.156;8.220;2023-05-20T00:31:16;14.50;87.50
7658;DHT22;8462;53.156;8.220;2023-05-20T00:33:43;14.50;87.40
7658;DHT22;8462;53.156;8.220;2023-05-20T00:36:10;14.50;87.20
7658;DHT22;8462;53.156;8.220;2023-05-20T00:38:37;14.50;87.30
7658;DHT22;8462;53.156;8.220;2023-05-20T00:41:04;14.50;87.40
7658;DHT22;8462;53.156;8.220;2023-05-20T00:43:31;14.40;87.30
7658;DHT22;8462;53.156;8.220;2023-05-20T00:45:59;14.40;87.10
7658;DHT22;8462;53.156;8.220;2023-05-20T00:48:35;14.40;87.10
7658;DHT22;8462;53.156;8.220;2023-05-20T00:51:06;14.40;87.10
7658;DHT22;8462;53.156;8.220;2023-05-20T00:53:33;14.40;86.90
7658;DHT22;8462;53.156;8.220;2023-05-20T00:56:00;14.40;86.50
7658;DHT22;8462;53.156;8.220;2023-05-20T00:58:27;14.40;86.20
7658;DHT22;8462;53.156;8.220;2023-05-20T01:00:54;14.40;86.10
7658;DHT22;8462;53.156;8.220;2023-05-20T01:03:29;14.40;85.60
7658;DHT22;8462;53.156;8.220;2023-05-20T01:05:56;14.40;85.40
7658;DHT22;8462;53.156;8.220;2023-05-20T01:08:24;14.50;84.80
7658;DHT22;8462;53.156;8.220;2023-05-20T01:10:56;14.50;84.80
7658;DHT22;8462;53.156;8.220;2023-05-20T01:13:28;14.50;84.90
7658;DHT22;8462;53.156;8.220;2023-05-20T01:15:58;14.40;84.70
7658;DHT22;8462;53.156;8.220;2023-05-20T01:18:28;14.40;84.50
7658;DHT22;8462;53.156;8.220;2023-05-20T01:20:58;14.40;84.10
7658;DHT22;8462;53.156;8.220;2023-05-20T01:23:33;14.40;83.90
7658;DHT22;8462;53.156;8.220;2023-05-20T01:26:00;14.40;83.40
7658;DHT22;8462;53.156;8.220;2023-05-20T01:28:27;14.30;83.10
7658;DHT22;8462;53.156;8.220;2023-05-20T01:30:58;14.30;82.80
7658;DHT22;8462;53.156;8.220;2023-05-20T01:33:27;14.20;82.60
7658;DHT22;8462;53.156;8.220;2023-05-20T01:35:55;14.20;82.60
7658;DHT22;8462;53.156;8.220;2023-05-20T01:38:25;14.10;82.00
7658;DHT22;8462;53.156;8.220;2023-05-20T01:40:54;14.10;81.80
7658;DHT22;8462;53.156;8.220;2023-05-20T01:43:23;14.00;81.50
7658;DHT22;8462;53.156;8.220;2023-05-20T01:45:51;14.00;81.10
7658;DHT22;8462;53.156;8.220;2023-05-20T01:48:18;13.90;80.20
7658;DHT22;8462;53.156;8.220;2023-05-20T01:50:45;13.90;79.80
7658;DHT22;8462;53.156;8.220;2023-05-20T01:53:11;13.90;79.20
7658;DHT22;8462;53.156;8.220;2023-05-20T01:55:38;13.90;78.70
7658;DHT22;8462;53.156;8.220;2023-05-20T01:58:06;13.80;78.40
7658;DHT22;8462;53.156;8.220;2023-05-20T02:00:35;13.80;78.20
7658;DHT22;8462;53.156;8.220;2023-05-20T02:03:03;13.80;78.20
7658;DHT22;8462;53.156;8.220;2023-05-20T02:05:30;13.70;77.50
7658;DHT22;8462;53.156;8.220;2023-05-20T02:07:57;13.60;77.60
7658;DHT22;8462;53.156;8.220;2023-05-20T02:10:24;13.60;77.40
7658;DHT22;8462;53.156;8.220;2023-05-20T02:12:50;13.60;77.60
7658;DHT22;8462;53.156;8.220;2023-05-20T02:15:19;13.50;77.70
7658;DHT22;8462;53.156;8.220;2023-05-20T02:17:46;13.50;77.30
7658;DHT22;8462;53.156;8.220;2023-05-20T02:20:14;13.40;77.40
7658;DHT22;8462;53.156;8.220;2023-05-20T02:22:41;13.40;77.50
7658;DHT22;8462;53.156;8.220;2023-05-20T02:25:09;13.30;77.50
7658;DHT22;8462;53.156;8.220;2023-05-20T02:27:36;13.20;77.70
7658;DHT22;8462;53.156;8.220;2023-05-20T02:30:06;13.20;77.70
7658;DHT22;8462;53.156;8.220;2023-05-20T02:32:35;13.20;78.10
7658;DHT22;8462;53.156;8.220;2023-05-20T02:35:03;13.10;78.20
7658;DHT22;8462;53.156;8.220;2023-05-20T02:37:30;13.10;78.50
7658;DHT22;8462;53.156;8.220;2023-05-20T02:39:57;13.10;78.60
7658;DHT22;8462;53.156;8.220;2023-05-20T02:42:24;13.00;78.70
7658;DHT22;8462;53.156;8.220;2023-05-20T02:44:51;13.00;79.10
7658;DHT22;8462;53.156;8.220;2023-05-20T02:47:21;13.00;79.40
7658;DHT22;8462;53.156;8.220;2023-05-20T02:49:49;13.00;80.00
7658;DHT22;8462;53.156;8.220;2023-05-20T02:52:16;13.00;80.60
7658;DHT22;8462;53.156;8.220;2023-05-20T02:54:43;12.90;81.10
7658;DHT22;8462;53.156;8.220;2023-05-20T02:57:10;12.90;81.60
7658;DHT22;8462;53.156;8.220;2023-05-20T02:59:37;12.90;82.10
7658;DHT22;8462;53.156;8.220;2023-05-20T03:02:04;12.80;82.40
7658;DHT22;8462;53.156;8.220;2023-05-20T03:04:32;12.70;82.90
7658;DHT22;8462;53.156;8.220;2023-05-20T03:07:04;12.70;83.20
7658;DHT22;8462;53.156;8.220;2023-05-20T03:09:32;12.70;83.50
7658;DHT22;8462;53.156;8.220;2023-05-20T03:11:59;12.70;83.70
7658;DHT22;8462;53.156;8.220;2023-05-20T03:14:26;12.70;83.90
7658;DHT22;8462;53.156;8.220;2023-05-20T03:16:53;12.60;84.20
7658;DHT22;8462;53.156;8.220;2023-05-20T03:19:21;12.60;84.40
7658;DHT22;8462;53.156;8.220;2023-05-20T03:21:48;12.50;84.60
7658;DHT22;8462;53.156;8.220;2023-05-20T03:24:17;12.50;84.80
7658;DHT22;8462;53.156;8.220;2023-05-20T03:26:45;12.50;84.90
7658;DHT22;8462;53.156;8.220;2023-05-20T03:29:13;12.40;85.00
7658;DHT22;8462;53.156;8.220;2023-05-20T03:31:40;12.40;85.20
7658;DHT22;8462;53.156;8.220;2023-05-20T03:34:07;12.40;85.20
7658;DHT22;8462;53.156;8.220;2023-05-20T03:36:35;12.40;85.30
7658;DHT22;8462;53.156;8.220;2023-05-20T03:39:02;12.30;86.30
7658;DHT22;8462;53.156;8.220;2023-05-20T03:41:32;12.30;85.70
7658;DHT22;8462;53.156;8.220;2023-05-20T03:43:59;12.30;85.50
7658;DHT22;8462;53.156;8.220;2023-05-20T03:46:26;12.30;85.30
7658;DHT22;8462;53.156;8.220;2023-05-20T03:48:53;12.30;85.40
7658;DHT22;8462;53.156;8.220;2023-05-20T03:51:20;12.30;85.40
7658;DHT22;8462;53.156;8.220;2023-05-20T03:53:49;12.30;85.20
7658;DHT22;8462;53.156;8.220;2023-05-20T03:56:16;12.30;85.00
7658;DHT22;8462;53.156;8.220;2023-05-20T03:58:44;12.40;84.80
7658;DHT22;8462;53.156;8.220;2023-05-20T04:01:12;12.40;84.50
7658;DHT22;8462;53.156;8.220;2023-05-20T04:03:39;12.40;84.40
7658;DHT22;8462;53.156;8.220;2023-05-20T04:06:08;12.40;84.40
7658;DHT22;8462;53.156;8.220;2023-05-20T04:08:35;12.40;84.10
7658;DHT22;8462;53.156;8.220;2023-05-20T04:11:02;12.50;83.80
7658;DHT22;8462;53.156;8.220;2023-05-20T04:13:29;12.50;83.60
7658;DHT22;8462;53.156;8.220;2023-05-20T04:15:57;12.50;83.60
7658;DHT22;8462;53.156;8.220;2023-05-20T04:18:26;12.60;83.10
7658;DHT22;8462;53.156;8.220;2023-05-20T04:20:54;12.70;82.80
7658;DHT22;8462;53.156;8.220;2023-05-20T04:23:21;12.70;82.50
7658;DHT22;8462;53.156;8.220;2023-05-20T04:25:48;12.80;82.20
7658;DHT22;8462;53.156;8.220;2023-05-20T04:28:16;12.80;81.80
7658;DHT22;8462;53.156;8.220;2023-05-20T04:30:43;12.80;81.90
7658;DHT22;8462;53.156;8.220;2023-05-20T04:33:13;12.80;82.20
7658;DHT22;8462;53.156;8.220;2023-05-20T04:35:40;12.90;81.60
7658;DHT22;8462;53.156;8.220;2023-05-20T04:38:08;13.00;81.00
7658;DHT22;8462;53.156;8.220;2023-05-20T04:40:35;13.10;80.90
7658;DHT22;8462;53.156;8.220;2023-05-20T04:43:03;13.10;80.70
7658;DHT22;8462;53.156;8.220;2023-05-20T04:45:30;13.20;80.60
7658;DHT22;8462;53.156;8.220;2023-05-20T04:47:58;13.30;80.50
7658;DHT22;8462;53.156;8.220;2023-05-20T04:50:26;13.40;79.70
7658;DHT22;8462;53.156;8.220;2023-05-20T04:52:54;13.40;79.80
7658;DHT22;8462;53.156;8.220;2023-05-20T04:55:20;13.60;79.80
7658;DHT22;8462;53.156;8.220;2023-05-20T04:57:49;13.70;79.20
7658;DHT22;8462;53.156;8.220;2023-05-20T05:00:16;14.00;78.70
7658;DHT22;8462;53.156;8.220;2023-05-20T05:02:43;14.30;76.70
7658;DHT22;8462;53.156;8.220;2023-05-20T05:05:10;14.50;78.20
7658;DHT22;8462;53.156;8.220;2023-05-20T05:07:39;15.40;74.40
7658;DHT22;8462;53.156;8.220;2023-05-20T05:10:07;16.40;70.70
7658;DHT22;8462;53.156;8.220;2023-05-20T05:12:34;17.30;67.60
7658;DHT22;8462;53.156;8.220;2023-05-20T05:15:03;18.10;62.80
7658;DHT22;8462;53.156;8.220;2023-05-20T05:17:30;18.80;60.50
7658;DHT22;8462;53.156;8.220;2023-05-20T05:19:57;19.40;58.60
7658;DHT22;8462;53.156;8.220;2023-05-20T05:22:26;19.80;56.50
7658;DHT22;8462;53.156;8.220;2023-05-20T05:24:54;20.30;55.60
7658;DHT22;8462;53.156;8.220;2023-05-20T05:27:23;20.60;53.60
7658;DHT22;8462;53.156;8.220;2023-05-20T05:29:50;20.80;52.70
7658;DHT22;8462;53.156;8.220;2023-05-20T05:32:18;21.00;52.80
7658;DHT22;8462;53.156;8.220;2023-05-20T05:34:45;21.20;52.10
7658;DHT22;8462;53.156;8.220;2023-05-20T05:37:12;21.60;50.80
7658;DHT22;8462;53.156;8.220;2023-05-20T05:39:39;21.70;49.70
7658;DHT22;8462;53.156;8.220;2023-05-20T05:42:07;21.60;50.20
7658;DHT22;8462;53.156;8.220;2023-05-20T05:44:34;21.70;49.20
7658;DHT22;8462;53.156;8.220;2023-05-20T05:47:04;21.60;50.40
7658;DHT22;8462;53.156;8.220;2023-05-20T05:49:31;22.00;49.90
7658;DHT22;8462;53.156;8.220;2023-05-20T05:51:59;22.20;48.60
7658;DHT22;8462;53.156;8.220;2023-05-20T05:54:26;22.30;48.70
7658;DHT22;8462;53.156;8.220;2023-05-20T05:56:53;22.40;48.60
7658;DHT22;8462;53.156;8.220;2023-05-20T05:59:23;22.60;48.10
7658;DHT22;8462;53.156;8.220;2023-05-20T06:01:49;22.70;48.50
7658;DHT22;8462;53.156;8.220;2023-05-20T06:04:16;22.90;48.30
7658;DHT22;8462;53.156;8.220;2023-05-20T06:06:43;23.10;47.00
7658;DHT22;8462;53.156;8.220;2023-05-20T06:09:10;22.90;47.40
7658;DHT22;8462;53.156;8.220;2023-05-20T06:11:37;22.90;47.10
7658;DHT22;8462;53.156;8.220;2023-05-20T06:14:06;23.10;46.00
7658;DHT22;8462;53.156;8.220;2023-05-20T06:16:35;23.00;46.20
7658;DHT22;8462;53.156;8.220;2023-05-20T06:19:02;22.90;46.80
7658;DHT22;8462;53.156;8.220;2023-05-20T06:21:30;22.90;46.90
7658;DHT22;8462;53.156;8.220;2023-05-20T06:23:57;23.00;46.50
7658;DHT22;8462;53.156;8.220;2023-05-20T06:26:25;22.80;46.70
7658;DHT22;8462;53.156;8.220;2023-05-20T06:28:52;22.80;47.20
7658;DHT22;8462;53.156;8.220;2023-05-20T06:31:19;22.90;47.30
7658;DHT22;8462;53.156;8.220;2023-05-20T06:33:48;22.90;47.20
7658;DHT22;8462;53.156;8.220;2023-05-20T06:36:16;23.00;47.00
7658;DHT22;8462;53.156;8.220;2023-05-20T06:38:43;23.00;46.80
7658;DHT22;8462;53.156;8.220;2023-05-20T06:41:12;22.90;47.40
7658;DHT22;8462;53.156;8.220;2023-05-20T06:43:39;22.80;47.60
7658;DHT22;8462;53.156;8.220;2023-05-20T06:46:27;22.90;47.80
7658;DHT22;8462;53.156;8.220;2023-05-20T06:49:00;23.40;46.80
7658;DHT22;8462;53.156;8.220;2023-05-20T06:51:28;23.70;46.40
7658;DHT22;8462;53.156;8.220;2023-05-20T06:53:55;23.70;46.10
7658;DHT22;8462;53.156;8.220;2023-05-20T06:56:22;23.80;46.50
7658;DHT22;8462;53.156;8.220;2023-05-20T06:58:48;23.90;46.40
7658;DHT22;8462;53.156;8.220;2023-05-20T07:01:16;23.90;46.30
7658;DHT22;8462;53.156;8.220;2023-05-20T07:03:42;23.90;45.90
7658;DHT22;8462;53.156;8.220;2023-05-20T07:06:11;23.80;46.50
7658;DHT22;8462;53.156;8.220;2023-05-20T07:08:38;23.70;46.70
7658;DHT22;8462;53.156;8.220;2023-05-20T07:11:06;23.70;46.60
7658;DHT22;8462;53.156;8.220;2023-05-20T07:13:33;23.70;46.60
7658;DHT22;8462;53.156;8.220;2023-05-20T07:16:00;23.50;47.60
7658;DHT22;8462;53.156;8.220;2023-05-20T07:18:27;23.50;47.60
7658;DHT22;8462;53.156;8.220;2023-05-20T07:20:55;23.60;47.20
7658;DHT22;8462;53.156;8.220;2023-05-20T07:23:33;23.70;47.10
7658;DHT22;8462;53.156;8.220;2023-05-20T07:26:00;23.70;47.30
7658;DHT22;8462;53.156;8.220;2023-05-20T07:28:28;23.70;47.70
7658;DHT22;8462;53.156;8.220;2023-05-20T07:30:55;23.80;47.60
7658;DHT22;8462;53.156;8.220;2023-05-20T07:33:25;23.80;48.00
7658;DHT22;8462;53.156;8.220;2023-05-20T07:35:54;23.90;47.60
7658;DHT22;8462;53.156;8.220;2023-05-20T07:38:22;23.80;47.90
7658;DHT22;8462;53.156;8.220;2023-05-20T07:41:01;23.70;48.40
7658;DHT22;8462;53.156;8.220;2023-05-20T07:43:28;23.30;48.30
7658;DHT22;8462;53.156;8.220;2023-05-20T07:45:56;22.90;49.60
7658;DHT22;8462;53.156;8.220;2023-05-20T07:48:23;22.30;52.30
7658;DHT22;8462;53.156;8.220;2023-05-20T07:50:50;21.70;52.50
7658;DHT22;8462;53.156;8.220;2023-05-20T07:53:18;21.10;54.70
7658;DHT22;8462;53.156;8.220;2023-05-20T07:55:44;20.60;56.40
7658;DHT22;8462;53.156;8.220;2023-05-20T07:58:13;20.40;57.00
7658;DHT22;8462;53.156;8.220;2023-05-20T08:00:40;20.20;58.00
7658;DHT22;8462;53.156;8.220;2023-05-20T08:03:07;20.00;60.10
7658;DHT22;8462;53.156;8.220;2023-05-20T08:05:45;19.60;61.10
7658;DHT22;8462;53.156;8.220;2023-05-20T08:08:13;19.40;63.40
7658;DHT22;8462;53.156;8.220;2023-05-20T08:10:50;19.10;65.20
7658;DHT22;8462;53.156;8.220;2023-05-20T08:13:19;19.10;66.00
7658;DHT22;8462;53.156;8.220;2023-05-20T08:15:46;19.20;65.80
7658;DHT22;8462;53.156;8.220;2023-05-20T08:18:14;19.30;66.10
7658;DHT22;8462;53.156;8.220;2023-05-20T08:20:41;19.40;66.00
7658;DHT22;8462;53.156;8.220;2023-05-20T08:23:08;19.30;65.90
7658;DHT22;8462;53.156;8.220;2023-05-20T08:25:35;19.40;67.20
7658;DHT22;8462;53.156;8.220;2023-05-20T08:28:03;19.60;66.40
7658;DHT22;8462;53.156;8.220;2023-05-20T08:30:33;19.70;65.00
7658;DHT22;8462;53.156;8.220;2023-05-20T08:33:00;19.80;64.70
7658;DHT22;8462;53.156;8.220;2023-05-20T08:35:28;19.80;65.60
7658;DHT22;8462;53.156;8.220;2023-05-20T08:37:55;19.90;64.90
7658;DHT22;8462;53.156;8.220;2023-05-20T08:40:23;19.90;64.50
7658;DHT22;8462;53.156;8.220;2023-05-20T08:42:50;20.00;65.10
7658;DHT22;8462;53.156;8.220;2023-05-20T08:45:19;20.20;63.30
7658;DHT22;8462;53.156;8.220;2023-05-20T08:47:52;20.10;63.30
7658;DHT22;8462;53.156;8.220;2023-05-20T08:50:19;20.20;62.60
7658;DHT22;8462;53.156;8.220;2023-05-20T08:52:47;20.20;63.40
7658;DHT22;8462;53.156;8.220;2023-05-20T08:55:16;20.40;62.60
7658;DHT22;8462;53.156;8.220;2023-05-20T08:57:48;20.40;62.00
7658;DHT22;8462;53.156;8.220;2023-05-20T09:00:16;20.40;60.80
7658;DHT22;8462;53.156;8.220;2023-05-20T09:02:45;20.40;61.40
7658;DHT22;8462;53.156;8.220;2023-05-20T09:05:13;20.50;60.50
7658;DHT22;8462;53.156;8.220;2023-05-20T09:07:40;20.60;60.20
7658;DHT22;8462;53.156;8.220;2023-05-20T09:10:08;20.50;59.70
7658;DHT22;8462;53.156;8.220;2023-05-20T09:12:36;20.60;59.00
7658;DHT22;8462;53.156;8.220;2023-05-20T09:15:03;20.70;57.80
7658;DHT22;8462;53.156;8.220;2023-05-20T09:17:37;20.70;57.80
7658;DHT22;8462;53.156;8.220;2023-05-20T09:20:09;20.40;58.00
7658;DHT22;8462;53.156;8.220;2023-05-20T09:22:38;20.50;59.00
7658;DHT22;8462;53.156;8.220;2023-05-20T09:25:05;20.70;58.30
7658;DHT22;8462;53.156;8.220;2023-05-20T09:27:32;20.90;57.40
7658;DHT22;8462;53.156;8.220;2023-05-20T09:29:59;21.00;56.60
7658;DHT22;8462;53.156;8.220;2023-05-20T09:32:27;20.90;57.80
7658;DHT22;8462;53.156;8.220;2023-05-20T09:34:54;20.80;58.20
7658;DHT22;8462;53.156;8.220;2023-05-20T09:37:24;20.80;56.40
7658;DHT22;8462;53.156;8.220;2023-05-20T09:40:03;20.90;56.30
7658;DHT22;8462;53.156;8.220;2023-05-20T09:42:36;21.10;56.70
7658;DHT22;8462;53.156;8.220;2023-05-20T09:45:04;21.10;56.60
7658;DHT22;8462;53.156;8.220;2023-05-20T09:47:37;20.90;56.50
7658;DHT22;8462;53.156;8.220;2023-05-20T09:50:07;21.00;56.30
7658;DHT22;8462;53.156;8.220;2023-05-20T09:52:36;21.20;55.90
7658;DHT22;8462;53.156;8.220;2023-05-20T09:55:06;21.50;54.60
7658;DHT22;8462;53.156;8.220;2023-05-20T09:57:35;21.80;52.10
7658;DHT22;8462;53.156;8.220;2023-05-20T10:00:04;22.00;51.30
7658;DHT22;8462;53.156;8.220;2023-05-20T10:02:40;22.10;50.40
7658;DHT22;8462;53.156;8.220;2023-05-20T10:05:12;22.10;50.60
7658;DHT22;8462;53.156;8.220;2023-05-20T10:08:09;22.10;50.30
7658;DHT22;8462;53.156;8.220;2023-05-20T10:10:45;22.00;49.70
7658;DHT22;8462;53.156;8.220;2023-05-20T10:13:22;21.90;49.50
7658;DHT22;8462;53.156;8.220;2023-05-20T10:15:58;21.90;49.60
7658;DHT22;8462;53.156;8.220;2023-05-20T10:18:35;21.90;50.10
7658;DHT22;8462;53.156;8.220;2023-05-20T10:21:14;22.00;50.50
7658;DHT22;8462;53.156;8.220;2023-05-20T10:23:41;22.40;50.50
7658;DHT22;8462;53.156;8.220;2023-05-20T10:26:09;22.70;48.70
7658;DHT22;8462;53.156;8.220;2023-05-20T10:28:37;22.50;48.30
7658;DHT22;8462;53.156;8.220;2023-05-20T10:31:14;22.40;49.30
7658;DHT22;8462;53.156;8.220;2023-05-20T10:33:42;22.50;49.20
7658;DHT22;8462;53.156;8.220;2023-05-20T10:36:21;22.40;49.60
7658;DHT22;8462;53.156;8.220;2023-05-20T10:38:51;22.70;48.50
7658;DHT22;8462;53.156;8.220;2023-05-20T10:41:22;22.70;48.70
7658;DHT22;8462;53.156;8.220;2023-05-20T10:43:59;22.70;48.60
7658;DHT22;8462;53.156;8.220;2023-05-20T10:46:27;22.70;47.90
7658;DHT22;8462;53.156;8.220;2023-05-20T10:48:54;22.50;47.60
7658;DHT22;8462;53.156;8.220;2023-05-20T10:51:22;22.20;48.40
7658;DHT22;8462;53.156;8.220;2023-05-20T10:53:52;22.10;49.00
7658;DHT22;8462;53.156;8.220;2023-05-20T10:56:22;21.90;49.60
7658;DHT22;8462;53.156;8.220;2023-05-20T10:58:49;22.10;49.30
7658;DHT22;8462;53.156;8.220;2023-05-20T11:01:17;22.20;49.50
7658;DHT22;8462;53.156;8.220;2023-05-20T11:03:44;22.40;48.90
7658;DHT22;8462;53.156;8.220;2023-05-20T11:06:13;22.40;48.90
7658;DHT22;8462;53.156;8.220;2023-05-20T11:08:40;22.30;48.80
7658;DHT22;8462;53.156;8.220;2023-05-20T11:11:07;22.10;49.70
7658;DHT22;8462;53.156;8.220;2023-05-20T11:13:36;22.00;48.60
7658;DHT22;8462;53.156;8.220;2023-05-20T11:16:04;22.00;50.30
7658;DHT22;8462;53.156;8.220;2023-05-20T11:18:31;22.10;49.50
7658;DHT22;8462;53.156;8.220;2023-05-20T11:20:58;22.30;48.70
7658;DHT22;8462;53.156;8.220;2023-05-20T11:23:26;22.30;48.20
7658;DHT22;8462;53.156;8.220;2023-05-20T11:25:54;22.30;48.50
7658;DHT22;8462;53.156;8.220;2023-05-20T11:28:21;22.40;48.80
7658;DHT22;8462;53.156;8.220;2023-05-20T11:30:51;22.70;48.80
7658;DHT22;8462;53.156;8.220;2023-05-20T11:33:18;22.80;47.90
7658;DHT22;8462;53.156;8.220;2023-05-20T11:35:46;22.60;47.50
7658;DHT22;8462;53.156;8.220;2023-05-20T11:38:14;22.50;48.60
7658;DHT22;8462;53.156;8.220;2023-05-20T11:40:45;22.60;47.80
7658;DHT22;8462;53.156;8.220;2023-05-20T11:43:13;22.70;48.40
7658;DHT22;8462;53.156;8.220;2023-05-20T11:45:41;22.70;48.50
7658;DHT22;8462;53.156;8.220;2023-05-20T11:48:10;22.80;49.00
7658;DHT22;8462;53.156;8.220;2023-05-20T11:50:38;22.70;49.20
7658;DHT22;8462;53.156;8.220;2023-05-20T11:53:07;22.60;49.60
7658;DHT22;8462;53.156;8.220;2023-05-20T11:55:42;22.40;49.60
7658;DHT22;8462;53.156;8.220;2023-05-20T11:58:10;22.10;50.30
7658;DHT22;8462;53.156;8.220;2023-05-20T12:00:36;21.90;50.80
7658;DHT22;8462;53.156;8.220;2023-05-20T12:03:03;21.80;51.30
7658;DHT22;8462;53.156;8.220;2023-05-20T12:05:31;21.70;50.90
7658;DHT22;8462;53.156;8.220;2023-05-20T12:07:58;21.40;51.70
7658;DHT22;8462;53.156;8.220;2023-05-20T12:10:25;21.30;52.30
7658;DHT22;8462;53.156;8.220;2023-05-20T12:12:52;21.20;52.80
7658;DHT22;8462;53.156;8.220;2023-05-20T12:15:19;21.30;53.20
7658;DHT22;8462;53.156;8.220;2023-05-20T12:17:48;21.40;53.10
7658;DHT22;8462;53.156;8.220;2023-05-20T12:20:18;21.40;52.90
7658;DHT22;8462;53.156;8.220;2023-05-20T12:22:49;21.40;53.20
7658;DHT22;8462;53.156;8.220;2023-05-20T12:25:17;21.30;52.70
7658;DHT22;8462;53.156;8.220;2023-05-20T12:27:45;21.20;53.70
7658;DHT22;8462;53.156;8.220;2023-05-20T12:30:14;21.30;53.70
7658;DHT22;8462;53.156;8.220;2023-05-20T12:32:41;21.20;54.30
7658;DHT22;8462;53.156;8.220;2023-05-20T12:35:09;21.20;54.70
7658;DHT22;8462;53.156;8.220;2023-05-20T12:37:36;21.20;55.00
7658;DHT22;8462;53.156;8.220;2023-05-20T12:40:06;21.20;54.80
7658;DHT22;8462;53.156;8.220;2023-05-20T12:42:34;21.20;54.60
7658;DHT22;8462;53.156;8.220;2023-05-20T12:45:01;21.10;55.30
7658;DHT22;8462;53.156;8.220;2023-05-20T12:47:28;21.10;54.70
7658;DHT22;8462;53.156;8.220;2023-05-20T12:49:55;21.20;54.90
7658;DHT22;8462;53.156;8.220;2023-05-20T12:52:22;21.30;55.00
7658;DHT22;8462;53.156;8.220;2023-05-20T12:54:49;21.40;55.40
7658;DHT22;8462;53.156;8.220;2023-05-20T12:57:17;21.60;55.50
7658;DHT22;8462;53.156;8.220;2023-05-20T12:59:44;21.80;54.10
7658;DHT22;8462;53.156;8.220;2023-05-20T13:02:11;21.70;54.60
7658;DHT22;8462;53.156;8.220;2023-05-20T13:04:38;21.70;54.80
7658;DHT22;8462;53.156;8.220;2023-05-20T13:07:05;21.70;54.80
7658;DHT22;8462;53.156;8.220;2023-05-20T13:09:32;21.60;54.60
7658;DHT22;8462;53.156;8.220;2023-05-20T13:11:59;21.40;55.00
7658;DHT22;8462;53.156;8.220;2023-05-20T13:14:28;21.30;55.40
7658;DHT22;8462;53.156;8.220;2023-05-20T13:16:55;21.40;55.20
7658;DHT22;8462;53.156;8.220;2023-05-20T13:19:22;21.50;54.60
7658;DHT22;8462;53.156;8.220;2023-05-20T13:21:49;21.50;55.30
7658;DHT22;8462;53.156;8.220;2023-05-20T13:24:18;21.50;54.60
7658;DHT22;8462;53.156;8.220;2023-05-20T13:26:45;21.40;55.40
7658;DHT22;8462;53.156;8.220;2023-05-20T13:29:12;21.30;55.30
7658;DHT22;8462;53.156;8.220;2023-05-20T13:31:41;21.10;55.70
7658;DHT22;8462;53.156;8.220;2023-05-20T13:34:08;21.00;56.00
7658;DHT22;8462;53.156;8.220;2023-05-20T13:36:35;21.00;56.30
7658;DHT22;8462;53.156;8.220;2023-05-20T13:39:02;21.10;56.00
7658;DHT22;8462;53.156;8.220;2023-05-20T13:41:29;21.10;56.60
7658;DHT22;8462;53.156;8.220;2023-05-20T13:43:56;21.30;56.10
7658;DHT22;8462;53.156;8.220;2023-05-20T13:46:23;21.30;55.90
7658;DHT22;8462;53.156;8.220;2023-05-20T13:48:51;21.40;56.40
7658;DHT22;8462;53.156;8.220;2023-05-20T13:51:18;21.70;55.70
7658;DHT22;8462;53.156;8.220;2023-05-20T13:53:45;21.70;54.50
7658;DHT22;8462;53.156;8.220;2023-05-20T13:56:11;21.60;54.80
7658;DHT22;8462;53.156;8.220;2023-05-20T13:58:38;21.50;55.10
7658;DHT22;8462;53.156;8.220;2023-05-20T14:01:06;21.50;55.80
7658;DHT22;8462;53.156;8.220;2023-05-20T14:03:33;21.60;55.60
7658;DHT22;8462;53.156;8.220;2023-05-20T14:06:03;21.60;54.70
7658;DHT22;8462;53.156;8.220;2023-05-20T14:08:30;21.50;55.20
7658;DHT22;8462;53.156;8.220;2023-05-20T14:10:57;21.60;55.80
7658;DHT22;8462;53.156;8.220;2023-05-20T14:13:24;21.60;54.80
7658;DHT22;8462;53.156;8.220;2023-05-20T14:15:52;21.60;54.70
7658;DHT22;8462;53.156;8.220;2023-05-20T14:18:22;21.50;55.00
7658;DHT22;8462;53.156;8.220;2023-05-20T14:20:49;21.30;54.90
7658;DHT22;8462;53.156;8.220;2023-05-20T14:23:17;21.30;55.00
7658;DHT22;8462;53.156;8.220;2023-05-20T14:25:44;21.30;55.30
7658;DHT22;8462;53.156;8.220;2023-05-20T14:28:11;21.30;54.80
7658;DHT22;8462;53.156;8.220;2023-05-20T14:30:38;21.40;55.20
7658;DHT22;8462;53.156;8.220;2023-05-20T14:33:05;21.50;55.00
7658;DHT22;8462;53.156;8.220;2023-05-20T14:35:32;21.50;54.70
7658;DHT22;8462;53.156;8.220;2023-05-20T14:37:59;21.60;55.50
7658;DHT22;8462;53.156;8.220;2023-05-20T14:40:30;21.60;54.90
7658;DHT22;8462;53.156;8.220;2023-05-20T14:42:57;21.50;55.00
7658;DHT22;8462;53.156;8.220;2023-05-20T14:45:24;21.30;55.60
7658;DHT22;8462;53.156;8.220;2023-05-20T14:47:51;21.20;55.80
7658;DHT22;8462;53.156;8.220;2023-05-20T14:50:19;21.00;56.30
7658;DHT22;8462;53.156;8.220;2023-05-20T14:52:46;20.90;57.10
7658;DHT22;8462;53.156;8.220;2023-05-20T14:55:13;21.00;56.80
7658;DHT22;8462;53.156;8.220;2023-05-20T14:57:42;21.00;56.60
7658;DHT22;8462;53.156;8.220;2023-05-20T15:00:10;20.90;56.90
7658;DHT22;8462;53.156;8.220;2023-05-20T15:02:38;21.00;57.00
7658;DHT22;8462;53.156;8.220;2023-05-20T15:05:06;21.00;56.80
7658;DHT22;8462;53.156;8.220;2023-05-20T15:07:34;20.90;57.10
7658;DHT22;8462;53.156;8.220;2023-05-20T15:10:01;21.00;57.60
7658;DHT22;8462;53.156;8.220;2023-05-20T15:12:28;21.00;58.30
7658;DHT22;8462;53.156;8.220;2023-05-20T15:14:56;21.10;57.40
7658;DHT22;8462;53.156;8.220;2023-05-20T15:17:23;21.20;57.30
7658;DHT22;8462;53.156;8.220;2023-05-20T15:19:51;21.20;57.20
7658;DHT22;8462;53.156;8.220;2023-05-20T15:22:17;21.20;57.40
7658;DHT22;8462;53.156;8.220;2023-05-20T15:24:45;21.30;57.70
7658;DHT22;8462;53.156;8.220;2023-05-20T15:27:12;21.20;57.30
7658;DHT22;8462;53.156;8.220;2023-05-20T15:29:39;21.10;57.60
7658;DHT22;8462;53.156;8.220;2023-05-20T15:32:07;21.10;58.40
7658;DHT22;8462;53.156;8.220;2023-05-20T15:34:34;21.20;59.80
7658;DHT22;8462;53.156;8.220;2023-05-20T15:37:02;21.20;59.00
7658;DHT22;8462;53.156;8.220;2023-05-20T15:39:29;21.00;59.10
7658;DHT22;8462;53.156;8.220;2023-05-20T15:41:56;20.90;59.30
7658;DHT22;8462;53.156;8.220;2023-05-20T15:44:26;20.90;59.70
7658;DHT22;8462;53.156;8.220;2023-05-20T15:46:54;20.80;59.80
7658;DHT22;8462;53.156;8.220;2023-05-20T15:49:22;20.80;60.00
7658;DHT22;8462;53.156;8.220;2023-05-20T15:51:50;20.60;60.10
7658;DHT22;8462;53.156;8.220;2023-05-20T15:54:17;20.60;60.70
7658;DHT22;8462;53.156;8.220;2023-05-20T15:56:44;20.50;60.80
7658;DHT22;8462;53.156;8.220;2023-05-20T15:59:11;20.40;61.80
7658;DHT22;8462;53.156;8.220;2023-05-20T16:01:38;20.40;61.80
7658;DHT22;8462;53.156;8.220;2023-05-20T16:04:05;20.30;62.00
7658;DHT22;8462;53.156;8.220;2023-05-20T16:06:34;20.20;62.10
7658;DHT22;8462;53.156;8.220;2023-05-20T16:09:01;20.10;62.50